sensor_id;sensor_type;location;lat;lon;timestamp;P1;durP1;ratioP1;P2;durP2;ratioP2
24279;SDS011;12395;42.808;23.408;2023-12-04T00:00:37;11.90;;;5.50;;
24279;SDS011;12395;42.808;23.408;2023-12-04T00:03:03;13.00;;;6.13;;
24279;SDS011;12395;42.808;23.408;2023-12-04T00:05:28;12.80;;;6.03;;
24279;SDS011;12395;42.808;23.408;2023-12-04T00:07:54;15.73;;;6.37;;
24279;SDS011;12395;42.808;23.408;2023-12-04T00:10:19;13.60;;;6.10;;
24279;SDS011;12395;42.808;23.408;2023-12-04T00:12:45;14.57;;;6.37;;
24279;SDS011;12395;42.808;23.408;2023-12-04T00:15:11;13.10;;;6.53;;
24279;SDS011;12395;42.808;23.408;2023-12-04T00:17:36;12.87;;;6.00;;
24279;SDS011;12395;42.808;23.408;2023-12-04T00:20:06;13.50;;;6.37;;
24279;SDS011;12395;42.808;23.408;2023-12-04T00:22:34;15.27;;;5.73;;
24279;SDS011;12395;42.808;23.408;2023-12-04T00:24:59;13.20;;;6.03;;
24279;SDS011;12395;42.808;23.408;2023-12-04T00:27:24;13.20;;;6.30;;
24279;SDS011;12395;42.808;23.408;2023-12-04T00:29:52;13.60;;;6.55;;
24279;SDS011;12395;42.808;23.408;2023-12-04T00:32:18;13.87;;;6.50;;
24279;SDS011;12395;42.808;23.408;2023-12-04T00:34:43;12.27;;;6.40;;
24279;SDS011;12395;42.808;23.408;2023-12-04T00:37:08;13.43;;;6.13;;
24279;SDS011;12395;42.808;23.408;2023-12-04T00:39:34;12.47;;;6.03;;
24279;SDS011;12395;42.808;23.408;2023-12-04T00:41:59;15.17;;;6.50;;
24279;SDS011;12395;42.808;23.408;2023-12-04T00:44:24;13.33;;;6.30;;
24279;SDS011;12395;42.808;23.408;2023-12-04T00:46:50;14.33;;;6.20;;
24279;SDS011;12395;42.808;23.408;2023-12-04T00:49:15;14.83;;;7.17;;
24279;SDS011;12395;42.808;23.408;2023-12-04T00:51:40;14.37;;;6.37;;
24279;SDS011;12395;42.808;23.408;2023-12-04T00:54:06;16.27;;;6.40;;
24279;SDS011;12395;42.808;23.408;2023-12-04T00:56:31;11.17;;;5.47;;
24279;SDS011;12395;42.808;23.408;2023-12-04T00:58:57;15.57;;;6.60;;
24279;SDS011;12395;42.808;23.408;2023-12-04T01:01:22;13.63;;;6.03;;
24279;SDS011;12395;42.808;23.408;2023-12-04T01:03:48;14.70;;;6.50;;
24279;SDS011;12395;42.808;23.408;2023-12-04T01:06:19;14.93;;;6.20;;
24279;SDS011;12395;42.808;23.408;2023-12-04T01:08:48;14.60;;;6.57;;
24279;SDS011;12395;42.808;23.408;2023-12-04T01:11:15;14.13;;;6.37;;
24279;SDS011;12395;42.808;23.408;2023-12-04T01:16:07;12.80;;;5.63;;
24279;SDS011;12395;42.808;23.408;2023-12-04T01:18:34;14.00;;;5.90;;
24279;SDS011;12395;42.808;23.408;2023-12-04T01:20:59;14.00;;;6.40;;
24279;SDS011;12395;42.808;23.408;2023-12-04T01:23:24;13.70;;;6.13;;
24279;SDS011;12395;42.808;23.408;2023-12-04T01:25:50;12.67;;;5.93;;
24279;SDS011;12395;42.808;23.408;2023-12-04T01:28:15;15.50;;;6.80;;
24279;SDS011;12395;42.808;23.408;2023-12-04T01:30:41;15.03;;;6.23;;
24279;SDS011;12395;42.808;23.408;2023-12-04T01:33:06;14.20;;;6.40;;
24279;SDS011;12395;42.808;23.408;2023-12-04T01:35:33;14.17;;;6.47;;
24279;SDS011;12395;42.808;23.408;2023-12-04T01:37:58;11.77;;;5.90;;
24279;SDS011;12395;42.808;23.408;2023-12-04T01:40:24;12.40;;;6.00;;
24279;SDS011;12395;42.808;23.408;2023-12-04T01:42:49;14.93;;;6.60;;
24279;SDS011;12395;42.808;23.408;2023-12-04T01:45:15;14.67;;;6.70;;
24279;SDS011;12395;42.808;23.408;2023-12-04T01:47:41;16.10;;;7.07;;
24279;SDS011;12395;42.808;23.408;2023-12-04T01:50:07;15.60;;;6.20;;
24279;SDS011;12395;42.808;23.408;2023-12-04T01:52:33;13.20;;;5.97;;
24279;SDS011;12395;42.808;23.408;2023-12-04T01:55:00;11.98;;;5.65;;
24279;SDS011;12395;42.808;23.408;2023-12-04T01:57:26;14.57;;;6.30;;
24279;SDS011;12395;42.808;23.408;2023-12-04T01:59:51;17.20;;;6.17;;
24279;SDS011;12395;42.808;23.408;2023-12-04T02:02:17;13.83;;;6.03;;
24279;SDS011;12395;42.808;23.408;2023-12-04T02:04:42;12.93;;;6.30;;
24279;SDS011;12395;42.808;23.408;2023-12-04T02:07:08;14.30;;;6.73;;
24279;SDS011;12395;42.808;23.408;2023-12-04T02:09:34;14.40;;;6.23;;
24279;SDS011;12395;42.808;23.408;2023-12-04T02:12:00;16.07;;;6.17;;
24279;SDS011;12395;42.808;23.408;2023-12-04T02:14:25;14.53;;;6.47;;
24279;SDS011;12395;42.808;23.408;2023-12-04T02:16:51;14.27;;;6.00;;
24279;SDS011;12395;42.808;23.408;2023-12-04T02:21:44;11.20;;;5.13;;
24279;SDS011;12395;42.808;23.408;2023-12-04T02:24:10;15.77;;;6.20;;
24279;SDS011;12395;42.808;23.408;2023-12-04T02:26:39;11.07;;;5.13;;
24279;SDS011;12395;42.808;23.408;2023-12-04T02:29:29;12.27;;;5.73;;
24279;SDS011;12395;42.808;23.408;2023-12-04T02:31:57;13.10;;;5.67;;
24279;SDS011;12395;42.808;23.408;2023-12-04T02:34:26;11.77;;;5.80;;
24279;SDS011;12395;42.808;23.408;2023-12-04T02:36:55;13.27;;;6.23;;
24279;SDS011;12395;42.808;23.408;2023-12-04T02:39:22;13.57;;;6.20;;
24279;SDS011;12395;42.808;23.408;2023-12-04T02:41:48;14.43;;;6.13;;
24279;SDS011;12395;42.808;23.408;2023-12-04T02:44:14;14.43;;;6.23;;
24279;SDS011;12395;42.808;23.408;2023-12-04T02:46:39;12.23;;;5.40;;
24279;SDS011;12395;42.808;23.408;2023-12-04T02:49:05;12.27;;;4.80;;
24279;SDS011;12395;42.808;23.408;2023-12-04T02:51:30;13.70;;;6.20;;
24279;SDS011;12395;42.808;23.408;2023-12-04T02:53:55;14.37;;;5.70;;
24279;SDS011;12395;42.808;23.408;2023-12-04T02:56:21;13.67;;;6.47;;
24279;SDS011;12395;42.808;23.408;2023-12-04T02:58:46;13.73;;;5.90;;
24279;SDS011;12395;42.808;23.408;2023-12-04T03:01:11;15.23;;;6.07;;
24279;SDS011;12395;42.808;23.408;2023-12-04T03:03:37;11.60;;;5.80;;
24279;SDS011;12395;42.808;23.408;2023-12-04T03:06:02;15.63;;;6.53;;
24279;SDS011;12395;42.808;23.408;2023-12-04T03:08:28;12.47;;;5.57;;
24279;SDS011;12395;42.808;23.408;2023-12-04T03:10:53;12.07;;;5.47;;
24279;SDS011;12395;42.808;23.408;2023-12-04T03:13:18;12.20;;;5.60;;
24279;SDS011;12395;42.808;23.408;2023-12-04T03:15:44;14.77;;;5.60;;
24279;SDS011;12395;42.808;23.408;2023-12-04T03:18:09;13.10;;;5.80;;
24279;SDS011;12395;42.808;23.408;2023-12-04T03:20:35;12.63;;;5.70;;
24279;SDS011;12395;42.808;23.408;2023-12-04T03:23:00;10.23;;;4.80;;
24279;SDS011;12395;42.808;23.408;2023-12-04T03:25:25;11.53;;;4.73;;
24279;SDS011;12395;42.808;23.408;2023-12-04T03:27:51;13.13;;;5.43;;
24279;SDS011;12395;42.808;23.408;2023-12-04T03:30:16;12.10;;;5.10;;
24279;SDS011;12395;42.808;23.408;2023-12-04T03:32:41;10.47;;;4.27;;
24279;SDS011;12395;42.808;23.408;2023-12-04T03:35:07;10.57;;;4.50;;
24279;SDS011;12395;42.808;23.408;2023-12-04T03:37:32;8.97;;;4.33;;
24279;SDS011;12395;42.808;23.408;2023-12-04T03:39:58;8.97;;;3.90;;
24279;SDS011;12395;42.808;23.408;2023-12-04T03:42:23;11.30;;;5.07;;
24279;SDS011;12395;42.808;23.408;2023-12-04T03:44:48;10.77;;;4.73;;
24279;SDS011;12395;42.808;23.408;2023-12-04T03:47:14;11.10;;;4.77;;
24279;SDS011;12395;42.808;23.408;2023-12-04T03:49:39;10.30;;;5.07;;
24279;SDS011;12395;42.808;23.408;2023-12-04T03:52:05;12.40;;;4.97;;
24279;SDS011;12395;42.808;23.408;2023-12-04T03:54:30;10.23;;;5.30;;
24279;SDS011;12395;42.808;23.408;2023-12-04T03:56:55;13.63;;;5.40;;
24279;SDS011;12395;42.808;23.408;2023-12-04T03:59:21;11.30;;;4.47;;
24279;SDS011;12395;42.808;23.408;2023-12-04T04:01:46;11.20;;;4.60;;
24279;SDS011;12395;42.808;23.408;2023-12-04T04:04:11;8.30;;;3.93;;
24279;SDS011;12395;42.808;23.408;2023-12-04T04:06:37;10.53;;;4.40;;
24279;SDS011;12395;42.808;23.408;2023-12-04T04:09:03;11.50;;;4.87;;
24279;SDS011;12395;42.808;23.408;2023-12-04T04:11:29;12.53;;;4.77;;
24279;SDS011;12395;42.808;23.408;2023-12-04T04:13:55;12.03;;;5.20;;
24279;SDS011;12395;42.808;23.408;2023-12-04T04:16:21;12.57;;;4.97;;
24279;SDS011;12395;42.808;23.408;2023-12-04T04:18:46;10.93;;;4.97;;
24279;SDS011;12395;42.808;23.408;2023-12-04T04:21:11;10.63;;;4.87;;
24279;SDS011;12395;42.808;23.408;2023-12-04T04:23:37;11.37;;;5.23;;
24279;SDS011;12395;42.808;23.408;2023-12-04T04:26:02;10.87;;;4.53;;
24279;SDS011;12395;42.808;23.408;2023-12-04T04:28:28;10.97;;;5.30;;
24279;SDS011;12395;42.808;23.408;2023-12-04T04:30:53;9.97;;;4.33;;
24279;SDS011;12395;42.808;23.408;2023-12-04T04:33:18;10.63;;;4.80;;
24279;SDS011;12395;42.808;23.408;2023-12-04T04:35:44;9.80;;;4.87;;
24279;SDS011;12395;42.808;23.408;2023-12-04T04:38:09;11.57;;;5.03;;
24279;SDS011;12395;42.808;23.408;2023-12-04T04:40:35;13.90;;;5.60;;
24279;SDS011;12395;42.808;23.408;2023-12-04T04:43:00;14.67;;;5.33;;
24279;SDS011;12395;42.808;23.408;2023-12-04T04:45:25;11.30;;;4.90;;
24279;SDS011;12395;42.808;23.408;2023-12-04T04:47:51;10.90;;;4.90;;
24279;SDS011;12395;42.808;23.408;2023-12-04T04:50:16;9.60;;;3.97;;
24279;SDS011;12395;42.808;23.408;2023-12-04T04:52:42;12.97;;;5.13;;
24279;SDS011;12395;42.808;23.408;2023-12-04T04:55:07;9.40;;;4.50;;
24279;SDS011;12395;42.808;23.408;2023-12-04T04:57:33;9.87;;;4.33;;
24279;SDS011;12395;42.808;23.408;2023-12-04T04:59:58;11.57;;;4.90;;
24279;SDS011;12395;42.808;23.408;2023-12-04T05:02:23;9.07;;;4.30;;
24279;SDS011;12395;42.808;23.408;2023-12-04T05:04:49;9.87;;;4.37;;
24279;SDS011;12395;42.808;23.408;2023-12-04T05:07:14;9.33;;;4.03;;
24279;SDS011;12395;42.808;23.408;2023-12-04T05:09:39;9.27;;;4.30;;
24279;SDS011;12395;42.808;23.408;2023-12-04T05:12:05;11.43;;;4.67;;
24279;SDS011;12395;42.808;23.408;2023-12-04T05:14:30;9.37;;;4.30;;
24279;SDS011;12395;42.808;23.408;2023-12-04T05:16:56;10.73;;;4.37;;
24279;SDS011;12395;42.808;23.408;2023-12-04T05:19:21;12.13;;;4.87;;
24279;SDS011;12395;42.808;23.408;2023-12-04T05:21:47;9.27;;;4.33;;
24279;SDS011;12395;42.808;23.408;2023-12-04T05:24:12;10.90;;;4.47;;
24279;SDS011;12395;42.808;23.408;2023-12-04T05:26:37;9.63;;;4.53;;
24279;SDS011;12395;42.808;23.408;2023-12-04T05:29:03;10.43;;;4.90;;
24279;SDS011;12395;42.808;23.408;2023-12-04T05:31:28;12.43;;;4.97;;
24279;SDS011;12395;42.808;23.408;2023-12-04T05:33:53;11.63;;;4.80;;
24279;SDS011;12395;42.808;23.408;2023-12-04T05:36:19;10.17;;;4.33;;
24279;SDS011;12395;42.808;23.408;2023-12-04T05:38:44;11.20;;;4.83;;
24279;SDS011;12395;42.808;23.408;2023-12-04T05:41:09;14.20;;;6.03;;
24279;SDS011;12395;42.808;23.408;2023-12-04T05:43:35;12.10;;;5.73;;
24279;SDS011;12395;42.808;23.408;2023-12-04T05:46:00;10.57;;;5.23;;
24279;SDS011;12395;42.808;23.408;2023-12-04T05:48:26;9.57;;;5.00;;
24279;SDS011;12395;42.808;23.408;2023-12-04T05:50:52;10.80;;;5.13;;
24279;SDS011;12395;42.808;23.408;2023-12-04T05:53:17;14.63;;;5.60;;
24279;SDS011;12395;42.808;23.408;2023-12-04T05:55:43;11.50;;;5.27;;
24279;SDS011;12395;42.808;23.408;2023-12-04T05:58:08;11.83;;;4.60;;
24279;SDS011;12395;42.808;23.408;2023-12-04T06:00:33;10.73;;;4.20;;
24279;SDS011;12395;42.808;23.408;2023-12-04T06:02:59;11.20;;;4.90;;
24279;SDS011;12395;42.808;23.408;2023-12-04T06:05:24;8.57;;;4.30;;
24279;SDS011;12395;42.808;23.408;2023-12-04T06:07:49;12.23;;;4.90;;
24279;SDS011;12395;42.808;23.408;2023-12-04T06:10:15;10.83;;;4.70;;
24279;SDS011;12395;42.808;23.408;2023-12-04T06:12:40;12.30;;;5.20;;
24279;SDS011;12395;42.808;23.408;2023-12-04T06:15:06;11.93;;;5.13;;
24279;SDS011;12395;42.808;23.408;2023-12-04T06:17:32;11.27;;;5.03;;
24279;SDS011;12395;42.808;23.408;2023-12-04T06:19:57;11.70;;;5.00;;
24279;SDS011;12395;42.808;23.408;2023-12-04T06:22:22;12.97;;;5.30;;
24279;SDS011;12395;42.808;23.408;2023-12-04T06:24:48;14.87;;;5.43;;
24279;SDS011;12395;42.808;23.408;2023-12-04T06:27:15;14.57;;;5.70;;
24279;SDS011;12395;42.808;23.408;2023-12-04T06:29:43;14.53;;;6.30;;
24279;SDS011;12395;42.808;23.408;2023-12-04T06:32:09;12.13;;;5.20;;
24279;SDS011;12395;42.808;23.408;2023-12-04T06:34:35;11.43;;;6.30;;
24279;SDS011;12395;42.808;23.408;2023-12-04T06:37:01;9.57;;;5.20;;
24279;SDS011;12395;42.808;23.408;2023-12-04T06:39:28;11.03;;;5.03;;
24279;SDS011;12395;42.808;23.408;2023-12-04T06:41:57;14.73;;;5.30;;
24279;SDS011;12395;42.808;23.408;2023-12-04T06:44:23;10.83;;;4.87;;
24279;SDS011;12395;42.808;23.408;2023-12-04T06:46:49;13.03;;;5.33;;
24279;SDS011;12395;42.808;23.408;2023-12-04T06:49:17;12.90;;;5.45;;
24279;SDS011;12395;42.808;23.408;2023-12-04T06:51:43;11.83;;;5.10;;
24279;SDS011;12395;42.808;23.408;2023-12-04T06:54:08;11.73;;;5.00;;
24279;SDS011;12395;42.808;23.408;2023-12-04T06:56:34;13.47;;;5.20;;
24279;SDS011;12395;42.808;23.408;2023-12-04T06:58:59;12.53;;;5.33;;
24279;SDS011;12395;42.808;23.408;2023-12-04T07:01:24;11.53;;;4.77;;
24279;SDS011;12395;42.808;23.408;2023-12-04T07:03:50;9.40;;;4.20;;
24279;SDS011;12395;42.808;23.408;2023-12-04T07:06:15;12.97;;;5.03;;
24279;SDS011;12395;42.808;23.408;2023-12-04T07:08:40;12.63;;;5.40;;
24279;SDS011;12395;42.808;23.408;2023-12-04T07:11:06;13.50;;;5.43;;
24279;SDS011;12395;42.808;23.408;2023-12-04T07:13:33;11.50;;;4.82;;
24279;SDS011;12395;42.808;23.408;2023-12-04T07:15:59;13.03;;;5.37;;
24279;SDS011;12395;42.808;23.408;2023-12-04T07:18:24;14.93;;;6.40;;
24279;SDS011;12395;42.808;23.408;2023-12-04T07:20:50;11.93;;;5.13;;
24279;SDS011;12395;42.808;23.408;2023-12-04T07:23:16;11.07;;;4.80;;
24279;SDS011;12395;42.808;23.408;2023-12-04T07:25:41;12.83;;;4.80;;
24279;SDS011;12395;42.808;23.408;2023-12-04T07:28:07;12.60;;;4.93;;
24279;SDS011;12395;42.808;23.408;2023-12-04T07:30:33;12.50;;;5.40;;
24279;SDS011;12395;42.808;23.408;2023-12-04T07:32:58;13.67;;;5.53;;
24279;SDS011;12395;42.808;23.408;2023-12-04T07:35:25;14.37;;;5.10;;
24279;SDS011;12395;42.808;23.408;2023-12-04T07:40:17;11.73;;;4.47;;
24279;SDS011;12395;42.808;23.408;2023-12-04T07:42:43;10.13;;;4.27;;
24279;SDS011;12395;42.808;23.408;2023-12-04T07:45:08;11.60;;;4.97;;
24279;SDS011;12395;42.808;23.408;2023-12-04T07:47:35;12.52;;;4.47;;
24279;SDS011;12395;42.808;23.408;2023-12-04T07:50:01;14.60;;;5.90;;
24279;SDS011;12395;42.808;23.408;2023-12-04T07:52:26;12.47;;;5.27;;
24279;SDS011;12395;42.808;23.408;2023-12-04T07:54:51;11.50;;;4.70;;
24279;SDS011;12395;42.808;23.408;2023-12-04T07:57:17;12.70;;;5.70;;
24279;SDS011;12395;42.808;23.408;2023-12-04T07:59:42;11.63;;;5.37;;
24279;SDS011;12395;42.808;23.408;2023-12-04T08:02:08;10.40;;;4.53;;
24279;SDS011;12395;42.808;23.408;2023-12-04T08:04:34;14.73;;;6.13;;
24279;SDS011;12395;42.808;23.408;2023-12-04T08:06:59;13.00;;;5.60;;
24279;SDS011;12395;42.808;23.408;2023-12-04T08:09:25;12.57;;;5.70;;
24279;SDS011;12395;42.808;23.408;2023-12-04T08:11:50;14.27;;;5.73;;
24279;SDS011;12395;42.808;23.408;2023-12-04T08:14:15;18.63;;;8.00;;
24279;SDS011;12395;42.808;23.408;2023-12-04T08:16:41;17.77;;;8.63;;
24279;SDS011;12395;42.808;23.408;2023-12-04T08:19:06;14.03;;;6.07;;
24279;SDS011;12395;42.808;23.408;2023-12-04T08:21:32;11.67;;;5.47;;
24279;SDS011;12395;42.808;23.408;2023-12-04T08:23:57;13.03;;;5.97;;
24279;SDS011;12395;42.808;23.408;2023-12-04T08:26:23;12.77;;;5.43;;
24279;SDS011;12395;42.808;23.408;2023-12-04T08:28:50;11.60;;;4.90;;
24279;SDS011;12395;42.808;23.408;2023-12-04T08:31:16;13.20;;;5.80;;
24279;SDS011;12395;42.808;23.408;2023-12-04T08:33:41;12.57;;;5.60;;
24279;SDS011;12395;42.808;23.408;2023-12-04T08:36:07;12.43;;;5.13;;
24279;SDS011;12395;42.808;23.408;2023-12-04T08:38:33;12.07;;;5.20;;
24279;SDS011;12395;42.808;23.408;2023-12-04T08:40:58;12.20;;;5.20;;
24279;SDS011;12395;42.808;23.408;2023-12-04T08:43:24;16.57;;;7.50;;
24279;SDS011;12395;42.808;23.408;2023-12-04T08:45:49;11.83;;;5.47;;
24279;SDS011;12395;42.808;23.408;2023-12-04T08:48:14;11.87;;;5.23;;
24279;SDS011;12395;42.808;23.408;2023-12-04T08:50:40;12.30;;;5.40;;
24279;SDS011;12395;42.808;23.408;2023-12-04T08:53:05;14.47;;;5.73;;
24279;SDS011;12395;42.808;23.408;2023-12-04T08:55:31;10.93;;;5.13;;
24279;SDS011;12395;42.808;23.408;2023-12-04T08:57:56;11.63;;;5.37;;
24279;SDS011;12395;42.808;23.408;2023-12-04T09:00:22;12.67;;;5.40;;
24279;SDS011;12395;42.808;23.408;2023-12-04T09:02:47;12.73;;;5.47;;
24279;SDS011;12395;42.808;23.408;2023-12-04T09:05:13;12.50;;;5.43;;
24279;SDS011;12395;42.808;23.408;2023-12-04T09:07:39;12.80;;;5.27;;
24279;SDS011;12395;42.808;23.408;2023-12-04T09:10:05;13.20;;;4.97;;
24279;SDS011;12395;42.808;23.408;2023-12-04T09:12:31;12.53;;;5.63;;
24279;SDS011;12395;42.808;23.408;2023-12-04T09:14:56;12.60;;;5.77;;
24279;SDS011;12395;42.808;23.408;2023-12-04T09:17:22;12.80;;;5.90;;
24279;SDS011;12395;42.808;23.408;2023-12-04T09:19:47;11.40;;;5.03;;
24279;SDS011;12395;42.808;23.408;2023-12-04T09:22:13;11.07;;;4.80;;
24279;SDS011;12395;42.808;23.408;2023-12-04T09:24:38;11.00;;;5.40;;
24279;SDS011;12395;42.808;23.408;2023-12-04T09:27:04;11.50;;;5.20;;
24279;SDS011;12395;42.808;23.408;2023-12-04T09:29:31;12.23;;;5.20;;
24279;SDS011;12395;42.808;23.408;2023-12-04T09:31:57;9.90;;;5.40;;
24279;SDS011;12395;42.808;23.408;2023-12-04T09:34:22;12.23;;;5.60;;
24279;SDS011;12395;42.808;23.408;2023-12-04T09:36:48;9.17;;;5.03;;
24279;SDS011;12395;42.808;23.408;2023-12-04T09:39:13;11.43;;;5.60;;
24279;SDS011;12395;42.808;23.408;2023-12-04T09:41:39;11.23;;;4.97;;
24279;SDS011;12395;42.808;23.408;2023-12-04T09:44:06;11.63;;;5.10;;
24279;SDS011;12395;42.808;23.408;2023-12-04T09:46:33;11.60;;;5.17;;
24279;SDS011;12395;42.808;23.408;2023-12-04T09:48:59;10.80;;;5.27;;
24279;SDS011;12395;42.808;23.408;2023-12-04T09:51:25;11.50;;;5.40;;
24279;SDS011;12395;42.808;23.408;2023-12-04T09:53:52;10.85;;;5.10;;
24279;SDS011;12395;42.808;23.408;2023-12-04T09:58:45;10.40;;;5.00;;
24279;SDS011;12395;42.808;23.408;2023-12-04T10:01:17;12.27;;;5.87;;
24279;SDS011;12395;42.808;23.408;2023-12-04T10:03:43;11.53;;;5.50;;
24279;SDS011;12395;42.808;23.408;2023-12-04T10:06:09;10.80;;;5.47;;
24279;SDS011;12395;42.808;23.408;2023-12-04T10:08:35;11.10;;;5.45;;
24279;SDS011;12395;42.808;23.408;2023-12-04T10:11:01;10.50;;;5.30;;
24279;SDS011;12395;42.808;23.408;2023-12-04T10:13:27;13.43;;;5.93;;
24279;SDS011;12395;42.808;23.408;2023-12-04T10:15:52;14.93;;;6.60;;
24279;SDS011;12395;42.808;23.408;2023-12-04T10:18:27;10.73;;;5.80;;
24279;SDS011;12395;42.808;23.408;2023-12-04T10:20:55;12.47;;;6.00;;
24279;SDS011;12395;42.808;23.408;2023-12-04T10:23:22;13.07;;;6.07;;
24279;SDS011;12395;42.808;23.408;2023-12-04T10:25:48;11.80;;;6.00;;
24279;SDS011;12395;42.808;23.408;2023-12-04T10:28:17;13.57;;;6.20;;
24279;SDS011;12395;42.808;23.408;2023-12-04T10:30:44;13.63;;;6.57;;
24279;SDS011;12395;42.808;23.408;2023-12-04T10:33:10;12.73;;;5.83;;
24279;SDS011;12395;42.808;23.408;2023-12-04T10:35:36;14.47;;;6.30;;
24279;SDS011;12395;42.808;23.408;2023-12-04T10:38:02;12.23;;;6.07;;
24279;SDS011;12395;42.808;23.408;2023-12-04T10:40:29;12.57;;;6.23;;
24279;SDS011;12395;42.808;23.408;2023-12-04T10:45:33;13.27;;;6.73;;
24279;SDS011;12395;42.808;23.408;2023-12-04T10:48:00;14.33;;;6.67;;
24279;SDS011;12395;42.808;23.408;2023-12-04T10:50:26;13.83;;;5.97;;
24279;SDS011;12395;42.808;23.408;2023-12-04T10:52:53;13.07;;;6.50;;
24279;SDS011;12395;42.808;23.408;2023-12-04T10:55:21;15.60;;;7.28;;
24279;SDS011;12395;42.808;23.408;2023-12-04T10:57:46;13.47;;;6.83;;
24279;SDS011;12395;42.808;23.408;2023-12-04T11:00:16;13.10;;;6.80;;
24279;SDS011;12395;42.808;23.408;2023-12-04T11:02:42;12.57;;;6.30;;
24279;SDS011;12395;42.808;23.408;2023-12-04T11:05:16;12.97;;;6.27;;
24279;SDS011;12395;42.808;23.408;2023-12-04T11:07:50;12.50;;;6.23;;
24279;SDS011;12395;42.808;23.408;2023-12-04T11:10:19;12.70;;;5.60;;
24279;SDS011;12395;42.808;23.408;2023-12-04T11:12:48;10.67;;;6.00;;
24279;SDS011;12395;42.808;23.408;2023-12-04T11:15:21;13.43;;;6.07;;
24279;SDS011;12395;42.808;23.408;2023-12-04T11:17:51;13.60;;;6.17;;
24279;SDS011;12395;42.808;23.408;2023-12-04T11:20:24;12.50;;;5.97;;
24279;SDS011;12395;42.808;23.408;2023-12-04T11:22:52;14.97;;;6.70;;
24279;SDS011;12395;42.808;23.408;2023-12-04T11:25:20;13.32;;;5.70;;
24279;SDS011;12395;42.808;23.408;2023-12-04T11:27:48;11.83;;;5.47;;
24279;SDS011;12395;42.808;23.408;2023-12-04T11:30:14;14.23;;;6.60;;
24279;SDS011;12395;42.808;23.408;2023-12-04T11:32:45;14.20;;;6.32;;
24279;SDS011;12395;42.808;23.408;2023-12-04T11:35:17;14.10;;;6.90;;
24279;SDS011;12395;42.808;23.408;2023-12-04T11:37:44;16.60;;;6.87;;
24279;SDS011;12395;42.808;23.408;2023-12-04T11:40:12;12.47;;;6.53;;
24279;SDS011;12395;42.808;23.408;2023-12-04T11:42:38;15.55;;;7.05;;
24279;SDS011;12395;42.808;23.408;2023-12-04T11:45:04;13.57;;;6.23;;
24279;SDS011;12395;42.808;23.408;2023-12-04T11:47:30;12.77;;;6.50;;
24279;SDS011;12395;42.808;23.408;2023-12-04T11:50:13;13.17;;;6.30;;
24279;SDS011;12395;42.808;23.408;2023-12-04T11:52:38;14.20;;;6.27;;
24279;SDS011;12395;42.808;23.408;2023-12-04T11:55:04;13.90;;;6.77;;
24279;SDS011;12395;42.808;23.408;2023-12-04T11:57:34;13.07;;;5.67;;
24279;SDS011;12395;42.808;23.408;2023-12-04T12:02:38;13.47;;;6.00;;
24279;SDS011;12395;42.808;23.408;2023-12-04T12:07:30;11.23;;;5.30;;
24279;SDS011;12395;42.808;23.408;2023-12-04T12:09:55;11.33;;;4.80;;
24279;SDS011;12395;42.808;23.408;2023-12-04T12:12:21;8.03;;;3.97;;
24279;SDS011;12395;42.808;23.408;2023-12-04T12:14:46;10.17;;;4.60;;
24279;SDS011;12395;42.808;23.408;2023-12-04T12:17:12;8.00;;;4.20;;
24279;SDS011;12395;42.808;23.408;2023-12-04T12:19:39;7.13;;;3.70;;
24279;SDS011;12395;42.808;23.408;2023-12-04T12:22:04;7.17;;;3.73;;
24279;SDS011;12395;42.808;23.408;2023-12-04T12:24:29;8.07;;;3.87;;
24279;SDS011;12395;42.808;23.408;2023-12-04T12:26:55;8.40;;;4.20;;
24279;SDS011;12395;42.808;23.408;2023-12-04T12:29:20;7.83;;;3.70;;
24279;SDS011;12395;42.808;23.408;2023-12-04T12:31:46;8.77;;;4.07;;
24279;SDS011;12395;42.808;23.408;2023-12-04T12:34:11;8.27;;;3.80;;
24279;SDS011;12395;42.808;23.408;2023-12-04T12:36:37;8.87;;;4.40;;
24279;SDS011;12395;42.808;23.408;2023-12-04T12:39:03;8.80;;;4.13;;
24279;SDS011;12395;42.808;23.408;2023-12-04T12:41:33;8.43;;;4.00;;
24279;SDS011;12395;42.808;23.408;2023-12-04T12:44:00;9.13;;;4.27;;
24279;SDS011;12395;42.808;23.408;2023-12-04T12:46:26;7.53;;;4.07;;
24279;SDS011;12395;42.808;23.408;2023-12-04T12:48:51;9.70;;;4.40;;
24279;SDS011;12395;42.808;23.408;2023-12-04T12:51:17;8.70;;;4.23;;
24279;SDS011;12395;42.808;23.408;2023-12-04T12:53:45;8.23;;;4.30;;
24279;SDS011;12395;42.808;23.408;2023-12-04T12:56:13;10.43;;;4.90;;
24279;SDS011;12395;42.808;23.408;2023-12-04T12:58:39;10.17;;;5.43;;
24279;SDS011;12395;42.808;23.408;2023-12-04T13:01:09;9.20;;;4.80;;
24279;SDS011;12395;42.808;23.408;2023-12-04T13:03:35;9.30;;;4.83;;
24279;SDS011;12395;42.808;23.408;2023-12-04T13:06:02;10.63;;;4.97;;
24279;SDS011;12395;42.808;23.408;2023-12-04T13:08:28;9.97;;;4.70;;
24279;SDS011;12395;42.808;23.408;2023-12-04T13:10:53;9.63;;;4.55;;
24279;SDS011;12395;42.808;23.408;2023-12-04T13:13:18;9.97;;;5.30;;
24279;SDS011;12395;42.808;23.408;2023-12-04T13:15:44;10.33;;;4.87;;
24279;SDS011;12395;42.808;23.408;2023-12-04T13:18:09;9.50;;;5.00;;
24279;SDS011;12395;42.808;23.408;2023-12-04T13:20:35;9.77;;;4.77;;
24279;SDS011;12395;42.808;23.408;2023-12-04T13:23:01;10.63;;;4.93;;
24279;SDS011;12395;42.808;23.408;2023-12-04T13:25:27;11.37;;;5.43;;
24279;SDS011;12395;42.808;23.408;2023-12-04T13:27:53;8.82;;;4.63;;
24279;SDS011;12395;42.808;23.408;2023-12-04T13:30:18;9.27;;;4.70;;
24279;SDS011;12395;42.808;23.408;2023-12-04T13:32:44;10.95;;;5.93;;
24279;SDS011;12395;42.808;23.408;2023-12-04T13:35:10;10.47;;;5.40;;
24279;SDS011;12395;42.808;23.408;2023-12-04T13:37:36;10.37;;;5.70;;
24279;SDS011;12395;42.808;23.408;2023-12-04T13:40:04;11.85;;;5.55;;
24279;SDS011;12395;42.808;23.408;2023-12-04T13:42:34;12.48;;;6.20;;
24279;SDS011;12395;42.808;23.408;2023-12-04T13:45:19;11.67;;;5.67;;
24279;SDS011;12395;42.808;23.408;2023-12-04T13:47:48;14.07;;;6.63;;
24279;SDS011;12395;42.808;23.408;2023-12-04T13:50:13;11.77;;;6.13;;
24279;SDS011;12395;42.808;23.408;2023-12-04T13:52:39;13.37;;;6.40;;
24279;SDS011;12395;42.808;23.408;2023-12-04T13:55:05;12.80;;;6.47;;
24279;SDS011;12395;42.808;23.408;2023-12-04T13:57:37;13.17;;;6.47;;
24279;SDS011;12395;42.808;23.408;2023-12-04T14:00:19;12.43;;;6.30;;
24279;SDS011;12395;42.808;23.408;2023-12-04T14:02:44;13.45;;;6.70;;
24279;SDS011;12395;42.808;23.408;2023-12-04T14:05:10;13.43;;;6.53;;
24279;SDS011;12395;42.808;23.408;2023-12-04T14:07:43;12.97;;;6.47;;
24279;SDS011;12395;42.808;23.408;2023-12-04T14:10:10;13.40;;;7.00;;
24279;SDS011;12395;42.808;23.408;2023-12-04T14:12:50;12.93;;;6.20;;
24279;SDS011;12395;42.808;23.408;2023-12-04T14:15:16;13.43;;;6.83;;
24279;SDS011;12395;42.808;23.408;2023-12-04T14:17:41;14.13;;;6.70;;
24279;SDS011;12395;42.808;23.408;2023-12-04T14:20:07;13.90;;;6.70;;
24279;SDS011;12395;42.808;23.408;2023-12-04T14:22:42;14.30;;;6.23;;
24279;SDS011;12395;42.808;23.408;2023-12-04T14:25:08;13.17;;;6.57;;
24279;SDS011;12395;42.808;23.408;2023-12-04T14:27:34;12.23;;;5.93;;
24279;SDS011;12395;42.808;23.408;2023-12-04T14:30:00;11.03;;;5.50;;
24279;SDS011;12395;42.808;23.408;2023-12-04T14:32:27;11.75;;;5.45;;
24279;SDS011;12395;42.808;23.408;2023-12-04T14:34:52;11.17;;;5.67;;